Terminal Aerodrome Forecast
Issued by NWS Wakefield, VA

Home | Current Version | Previous Version | Text Only | Print | Product List | Glossary On
Versions: 1 2 3 4 5 6 7 8 9 10 11 12 13
000
FTUS41 KAKQ 281100 RRA
TAFORF
TAF
KORF 281155Z 2812/2912 23013KT P6SM SCT060 OVC120
     FM281800 24011KT P6SM -RA OVC040
     FM290000 31006KT 5SM -RA BR OVC025
     FM290400 01008KT 2SM -RA BR OVC009
     FM290800 02012G18KT 2SM -RA BR OVC010=

USA.gov is the U.S. government's official web portal to all federal, state and local government web resources and services.